Bloomville, Ohio
Current Conditions -  °F | °C
As of 6:53 PM on Friday 28 Nov 2014 (Local Time) from KMNN Reporting Station
Broken Clouds Broken Clouds  
Wind Chill: 22°   Ceiling: 11000
Heat Index: 30°   Visibility: 9mi
Dew Point: 21°   Wind: 9mph
Humidity: 69%   Direction: 170°S
Pressure: 30.16"   Gusts: NA
Location:  41.05°N, 83.01°W
Report Text: KMNN 282353Z AUTO 17008KT 9SM SCT085 BKN110 M01/M06 A3016 RMK AO2 SLP226 60000 T10111061 11011 21028 56022 TSNO
Loading
Personal Weather Stations






























Interactive Weather Map New forecast layout! Learn more

10-Day Weather Forecast

Advertisements
Track Severe Weather on mobile